< < Back
Terminal Aerodrome Forecast


Current Version              Previous Versions:   1  2  3  4  5  6  7  8  9  

Terminal Aerodrome Forecast

808
FTUS42 KCAE 031731
TAFCAE
TAF
KCAE 031731Z 0318/0418 25010G18KT 6SM -SHRA SCT015 OVC035
     FM040000 24008KT P6SM SCT015 BKN100
     FM041500 27015G20KT P6SM SCT030=

Latest METAR

513
SAUS80 KWBC 032200
MTRCAE
METAR KCAE 032156Z 24011G21KT 10SM BKN150 29/19 A2994 RMK AO2 SLP135
T02890194 $


USA.gov is the U.S. government's official web portal to all federal, state and local government web resources and services.